トロムソ の空港の天気 - METARとTAF

トロムソ空港 ( ENTC / TOS ) - ノルウェー トロムス県トロムソ
飛行場実況気象(Metar)
観測時間08/04 23:50 CEST (08/04 21:50 UTC)
風向・風速北 3m/s
視程3500m
天気現象
全天の4割程度の雲 雲底高度 90m
全天を覆う雲 雲底高度 180m
気温12℃
湿度94%
気圧1005hPa
METARENTC 042150Z VRB05KT 3500 RA SCT003 OVC006 12/11 Q1005 REDZ RMK WIND 2600FT 30004KT
過去の天気等 Google飛行場航空写真 Wunderground天気予報

過去48時間のMETAR

飛行場予報(TAF)
発表時間: -
4日20時 CEST から 確率 40% で
視程4500m
天気現象しゅう雨
4日20時 CEST から 確率 40% で
全天の8割程度の雲 雲底高度 240m
TAF COR ENTC 0418/0518 23005KT 9999 FEW005 BKN050
PROB40 0418/0424 4500 SHRA
PROB40 0418/0506 BKN008